createdAt,value
2022-09-14T00:01:26.506Z,99354.44
2022-09-14T00:04:05.461Z,99350.13
2022-09-14T00:06:33.584Z,99351.97
2022-09-14T00:09:01.423Z,99353.81
2022-09-14T00:11:32.113Z,99353.16
2022-09-14T00:14:01.341Z,99354.75
2022-09-14T00:16:31.088Z,99353.97
2022-09-14T00:19:01.104Z,99343.53
2022-09-14T00:21:29.149Z,99350.41
2022-09-14T00:23:56.370Z,99338.59
2022-09-14T00:26:23.984Z,99352.03
2022-09-14T00:28:56.697Z,99321.38
2022-09-14T00:31:25.890Z,99346.91
2022-09-14T00:33:53.787Z,99348.59
2022-09-14T00:36:27.183Z,99328.16
2022-09-14T00:38:56.872Z,99340.81
2022-09-14T00:41:27.460Z,99343.66
2022-09-14T00:44:15.653Z,99343.81
2022-09-14T00:46:46.562Z,99347.31
2022-09-14T00:49:31.321Z,99340.41
2022-09-14T00:52:16.554Z,99328.69
2022-09-14T00:54:49.894Z,99337.03
2022-09-14T00:57:18.544Z,99332.88
2022-09-14T00:59:48.600Z,99332.75
2022-09-14T01:02:16.331Z,99331.81
2022-09-14T01:04:44.730Z,99325.91
2022-09-14T01:07:33.043Z,99326.84
2022-09-14T01:10:22.037Z,99327.84
2022-09-14T01:13:07.997Z,99325.38
2022-09-14T01:15:53.990Z,99320.34
2022-09-14T01:18:46.336Z,99318.69
2022-09-14T01:21:21.971Z,99305.41
2022-09-14T01:23:58.207Z,99300.31
2022-09-14T01:26:37.080Z,99336.00
2022-09-14T01:29:19.184Z,99330.00
2022-09-14T01:32:07.222Z,99329.09
2022-09-14T01:34:46.613Z,99273.25
2022-09-14T01:37:19.721Z,99325.84
2022-09-14T01:39:54.408Z,99292.00
2022-09-14T01:42:26.472Z,99313.72
2022-09-14T01:44:59.274Z,99316.06
2022-09-14T01:47:40.460Z,99315.28
2022-09-14T01:50:34.253Z,99318.69
2022-09-14T01:53:20.363Z,99317.13
2022-09-14T01:56:11.133Z,99306.28
2022-09-14T01:58:45.523Z,99305.41
2022-09-14T02:01:19.343Z,99319.22
2022-09-14T02:03:54.760Z,99311.72
2022-09-14T02:06:34.614Z,99321.31
2022-09-14T02:09:03.350Z,99294.25
2022-09-14T02:11:30.327Z,99312.84
2022-09-14T02:13:57.531Z,99315.47
2022-09-14T02:16:26.170Z,99274.81
2022-09-14T02:18:53.856Z,99319.19
2022-09-14T02:21:25.798Z,99313.00
2022-09-14T02:23:54.059Z,99310.25
2022-09-14T02:26:23.240Z,99314.66
2022-09-14T02:28:50.956Z,99301.88
2022-09-14T02:31:57.905Z,99319.78
2022-09-14T02:34:32.833Z,99313.00
2022-09-14T02:37:22.517Z,99317.41
2022-09-14T02:40:06.890Z,99311.44
2022-09-14T02:42:35.006Z,99313.28
2022-09-14T02:45:06.243Z,99315.09
2022-09-14T02:47:55.955Z,99304.53
2022-09-14T02:50:26.003Z,99303.63
2022-09-14T02:53:38.398Z,99295.09
2022-09-14T02:56:09.092Z,99289.03
2022-09-14T02:58:40.909Z,99295.16
2022-09-14T03:01:09.985Z,99294.25
2022-09-14T03:03:37.482Z,99294.25
2022-09-14T03:06:05.893Z,99280.56
2022-09-14T03:08:33.572Z,99281.50
2022-09-14T03:11:00.592Z,99287.59
2022-09-14T03:13:28.141Z,99285.00
2022-09-14T03:15:55.308Z,99254.63
2022-09-14T03:18:22.463Z,99284.50
2022-09-14T03:20:49.540Z,99274.34
2022-09-14T03:23:16.533Z,99294.81
2022-09-14T03:25:45.229Z,99291.28
2022-09-14T03:28:13.552Z,99287.75
2022-09-14T03:30:40.747Z,99294.66
2022-09-14T03:33:07.910Z,99253.28
2022-09-14T03:35:35.209Z,99290.22
2022-09-14T03:38:03.473Z,99277.19
2022-09-14T03:40:31.309Z,99273.81
2022-09-14T03:42:58.699Z,99278.31
2022-09-14T03:45:25.990Z,99279.16
2022-09-14T03:47:53.001Z,99274.22
2022-09-14T03:50:20.367Z,99284.75
2022-09-14T03:52:47.937Z,99255.78
2022-09-14T03:55:15.620Z,99269.41
2022-09-14T03:57:42.691Z,99244.16
2022-09-14T04:00:11.535Z,99278.25
2022-09-14T04:02:39.476Z,99254.84
2022-09-14T04:05:07.322Z,99275.88
2022-09-14T04:07:34.342Z,99287.25
2022-09-14T04:10:01.471Z,99276.25
2022-09-14T04:12:28.612Z,99274.56
2022-09-14T04:14:55.701Z,99243.25
2022-09-14T04:17:25.392Z,99282.41
2022-09-14T04:19:52.590Z,99262.25
2022-09-14T04:22:19.630Z,99286.22
2022-09-14T04:24:46.660Z,99279.44
2022-09-14T04:27:13.769Z,99235.47
2022-09-14T04:29:40.870Z,99283.75
2022-09-14T04:32:07.996Z,99289.84
2022-09-14T04:34:35.872Z,99269.75
2022-09-14T04:37:02.915Z,99291.78
2022-09-14T04:39:30.521Z,99281.47
2022-09-14T04:41:57.764Z,99295.16
2022-09-14T04:44:24.959Z,99273.13
2022-09-14T04:46:52.673Z,99236.41
2022-09-14T04:49:21.842Z,99275.34
2022-09-14T04:51:49.302Z,99287.31
2022-09-14T04:54:18.062Z,99305.19
2022-09-14T04:56:45.596Z,99276.44
2022-09-14T04:59:12.879Z,99293.38
2022-09-14T05:01:43.015Z,99267.72
2022-09-14T05:04:12.154Z,99253.56
2022-09-14T05:06:41.620Z,99289.13
2022-09-14T05:09:16.222Z,99299.28
2022-09-14T05:11:43.791Z,99291.59
2022-09-14T05:14:14.883Z,99296.00
2022-09-14T05:16:43.812Z,99285.75
2022-09-14T05:19:17.255Z,99290.81
2022-09-14T05:21:45.751Z,99294.22
2022-09-14T05:24:15.666Z,99283.19
2022-09-14T05:26:44.241Z,99294.06
2022-09-14T05:29:17.255Z,99294.56
2022-09-14T05:31:45.258Z,99288.28
2022-09-14T05:34:12.917Z,99289.00
2022-09-14T05:36:40.736Z,99279.44
2022-09-14T05:39:08.419Z,99287.56
2022-09-14T05:41:36.049Z,99295.13
2022-09-14T05:44:03.320Z,99307.94
2022-09-14T05:46:30.587Z,99270.47
2022-09-14T05:48:58.072Z,99307.53
2022-09-14T05:51:27.131Z,99299.41
2022-09-14T05:53:56.980Z,99292.09
2022-09-14T05:56:26.092Z,99291.84
2022-09-14T05:58:53.966Z,99286.94
2022-09-14T06:01:22.718Z,99285.13
2022-09-14T06:03:51.066Z,99286.66
2022-09-14T06:06:19.841Z,99288.22
2022-09-14T06:08:50.509Z,99244.25
2022-09-14T06:11:20.680Z,99295.41
2022-09-14T06:13:48.756Z,99295.38
2022-09-14T06:16:18.312Z,99294.88
2022-09-14T06:18:46.762Z,99298.50
2022-09-14T06:21:16.876Z,99290.19
2022-09-14T06:23:44.629Z,99295.41
2022-09-14T06:26:12.332Z,99303.84
2022-09-14T06:28:39.920Z,99307.34
2022-09-14T06:31:10.295Z,99305.69
2022-09-14T06:33:37.443Z,99312.84
2022-09-14T06:36:12.475Z,99311.19
2022-09-14T06:38:41.174Z,99292.28
2022-09-14T06:41:10.407Z,99313.00
2022-09-14T06:43:39.346Z,99303.63
2022-09-14T06:46:07.817Z,99310.53
2022-09-14T06:48:38.535Z,99317.28
2022-09-14T06:51:31.879Z,99316.25
2022-09-14T06:54:00.473Z,99314.44
2022-09-14T06:56:29.399Z,99315.97
2022-09-14T06:58:58.376Z,99321.19
2022-09-14T07:01:27.153Z,99315.81
2022-09-14T07:03:54.759Z,99314.78
2022-09-14T07:06:39.190Z,99312.03
2022-09-14T07:09:06.304Z,99310.34
2022-09-14T07:11:33.533Z,99313.47
2022-09-14T07:14:02.122Z,99324.53
2022-09-14T07:16:32.609Z,99323.59
2022-09-14T07:19:04.280Z,99321.53
2022-09-14T07:21:33.329Z,99317.44
2022-09-14T07:24:01.090Z,99325.75
2022-09-14T07:26:30.931Z,99326.44
2022-09-14T07:29:11.381Z,99323.63
2022-09-14T07:31:40.730Z,99312.59
2022-09-14T07:34:08.252Z,99317.56
2022-09-14T07:36:35.968Z,99315.44
2022-09-14T07:39:04.946Z,99318.34
2022-09-14T07:41:34.406Z,99312.31
2022-09-14T07:44:02.531Z,99310.63
2022-09-14T07:46:30.795Z,99307.34
2022-09-14T07:48:58.700Z,99306.41
2022-09-14T07:51:26.438Z,99300.25
2022-09-14T07:53:53.835Z,99300.13
2022-09-14T07:56:22.132Z,99312.28
2022-09-14T07:58:53.987Z,99311.31
2022-09-14T08:01:22.389Z,99310.47
2022-09-14T08:03:49.848Z,99308.69
2022-09-14T08:06:18.471Z,99310.66
2022-09-14T08:08:47.694Z,99300.16
2022-09-14T08:11:14.652Z,99310.59
2022-09-14T08:13:43.261Z,99301.25
2022-09-14T08:16:10.682Z,99298.88
2022-09-14T08:18:38.141Z,99305.66
2022-09-14T08:21:15.773Z,99309.81
2022-09-14T08:23:43.211Z,99311.66
2022-09-14T08:26:11.732Z,99308.09
2022-09-14T08:28:38.734Z,99300.81
2022-09-14T08:31:07.069Z,99304.63
2022-09-14T08:33:34.731Z,99315.56
2022-09-14T08:36:01.755Z,99306.06
2022-09-14T08:38:28.990Z,99308.72
2022-09-14T08:40:56.610Z,99308.91
2022-09-14T08:43:25.083Z,99325.44
2022-09-14T08:45:55.442Z,99320.31
2022-09-14T08:48:31.885Z,99323.38
2022-09-14T08:50:58.928Z,99322.59
2022-09-14T08:53:25.952Z,99316.34
2022-09-14T08:55:54.751Z,99317.03
2022-09-14T08:58:35.073Z,99317.03
2022-09-14T09:01:31.442Z,99307.97
2022-09-14T09:04:13.869Z,99310.94
2022-09-14T09:06:49.064Z,99307.91
2022-09-14T09:09:32.939Z,99309.69
2022-09-14T09:12:00.232Z,99312.00
2022-09-14T09:14:33.921Z,99305.69
2022-09-14T09:17:03.074Z,99299.94
2022-09-14T09:20:02.167Z,99295.50
2022-09-14T09:22:33.713Z,99294.53
2022-09-14T09:25:00.900Z,99298.22
2022-09-14T09:27:28.210Z,99288.28
2022-09-14T09:29:55.221Z,99289.00
2022-09-14T09:32:24.534Z,99295.97
2022-09-14T09:35:15.762Z,99301.50
2022-09-14T09:37:50.914Z,99303.41
2022-09-14T09:40:20.191Z,99306.81
2022-09-14T09:43:06.163Z,99308.50
2022-09-14T09:46:05.156Z,99309.03
2022-09-14T09:48:43.540Z,99301.16
2022-09-14T09:51:23.538Z,99303.78
2022-09-14T09:53:53.640Z,99310.31
2022-09-14T09:56:24.669Z,99306.78
2022-09-14T09:58:52.399Z,99310.53
2022-09-14T10:01:28.702Z,99302.81
2022-09-14T10:04:14.660Z,99309.78
2022-09-14T10:06:46.298Z,99308.78
2022-09-14T10:09:14.705Z,99309.47
2022-09-14T10:11:41.959Z,99317.66
2022-09-14T10:14:41.503Z,99319.09
2022-09-14T10:17:16.772Z,99320.50
2022-09-14T10:19:54.759Z,99323.44
2022-09-14T10:22:35.295Z,99319.59
2022-09-14T10:25:05.230Z,99315.94
2022-09-14T10:27:38.235Z,99310.13
2022-09-14T10:30:17.581Z,99320.59
2022-09-14T10:32:49.109Z,99316.31
2022-09-14T10:35:17.567Z,99307.16
2022-09-14T10:37:53.971Z,99306.88
2022-09-14T10:40:25.682Z,99309.78
2022-09-14T10:42:52.736Z,99304.53
2022-09-14T10:45:28.703Z,99303.78
2022-09-14T10:48:12.910Z,99305.66
2022-09-14T10:50:58.886Z,99305.28
2022-09-14T10:53:29.313Z,99300.88
2022-09-14T10:56:06.411Z,99300.47
2022-09-14T10:58:53.670Z,99283.69
2022-09-14T11:01:26.094Z,99280.78
2022-09-14T11:03:56.132Z,99279.91
2022-09-14T11:06:44.514Z,99273.22
2022-09-14T11:09:11.443Z,99283.34
2022-09-14T11:11:38.513Z,99280.72
2022-09-14T11:14:17.629Z,99280.69
2022-09-14T11:16:47.890Z,99277.06
2022-09-14T11:19:14.878Z,99277.53
2022-09-14T11:21:51.821Z,99272.97
2022-09-14T11:24:19.303Z,99270.63
2022-09-14T11:26:53.330Z,99279.69
2022-09-14T11:29:32.352Z,99263.66
2022-09-14T11:32:19.308Z,99278.06
2022-09-14T11:34:54.989Z,99280.59
2022-09-14T11:37:26.314Z,99280.97
2022-09-14T11:40:03.808Z,99281.53
2022-09-14T11:42:37.943Z,99271.00
2022-09-14T11:45:13.913Z,99269.00
2022-09-14T11:47:45.305Z,99258.75
2022-09-14T11:50:29.051Z,99264.47
2022-09-14T11:53:01.440Z,99256.88
2022-09-14T11:55:28.862Z,99248.38
2022-09-14T11:57:57.370Z,99245.53
2022-09-14T12:00:24.369Z,99244.94
2022-09-14T12:02:58.957Z,99230.50
2022-09-14T12:05:27.650Z,99242.94
2022-09-14T12:07:55.693Z,99249.84
2022-09-14T12:10:22.710Z,99247.13
2022-09-14T12:12:49.587Z,99244.13
2022-09-14T12:15:19.387Z,99239.25
2022-09-14T12:17:46.335Z,99232.53
2022-09-14T12:20:27.940Z,99234.22
2022-09-14T12:23:15.309Z,99236.50
2022-09-14T12:25:54.052Z,99243.41
2022-09-14T12:28:38.439Z,99244.47
2022-09-14T12:31:08.125Z,99244.19
2022-09-14T12:33:35.293Z,99243.69
2022-09-14T12:36:05.028Z,99245.66
2022-09-14T12:38:32.166Z,99243.34
2022-09-14T12:40:59.098Z,99243.16
2022-09-14T12:43:38.312Z,99240.16
2022-09-14T12:46:08.286Z,99243.91
2022-09-14T12:48:47.386Z,99248.56
2022-09-14T12:51:32.862Z,99239.03
2022-09-14T12:54:08.959Z,99241.66
2022-09-14T12:56:50.970Z,99245.13
2022-09-14T12:59:25.085Z,99235.47
2022-09-14T13:02:10.709Z,99236.97
2022-09-14T13:04:38.901Z,99234.56
2022-09-14T13:07:07.829Z,99230.22
2022-09-14T13:09:35.036Z,99232.13
2022-09-14T13:12:05.240Z,99227.44
2022-09-14T13:14:34.770Z,99236.78
2022-09-14T13:17:03.682Z,99222.72
2022-09-14T13:19:31.949Z,99227.44
2022-09-14T13:22:00.272Z,99214.69
2022-09-14T13:24:27.396Z,99216.72
2022-09-14T13:26:56.456Z,99209.31
2022-09-14T13:29:25.077Z,99204.50
2022-09-14T13:31:51.973Z,99207.88
2022-09-14T13:34:29.143Z,99207.88
2022-09-14T13:36:56.514Z,99200.97
2022-09-14T13:39:29.755Z,99202.44
2022-09-14T13:41:57.152Z,99193.63
2022-09-14T13:44:27.592Z,99187.50
2022-09-14T13:46:55.963Z,99188.81
2022-09-14T13:49:23.236Z,99186.78
2022-09-14T13:51:50.714Z,99202.88
2022-09-14T13:54:19.657Z,99196.53
2022-09-14T13:56:47.545Z,99193.19
2022-09-14T13:59:19.066Z,99191.47
2022-09-14T14:01:54.315Z,99190.75
2022-09-14T14:04:28.151Z,99186.41
2022-09-14T14:07:04.284Z,99180.97
2022-09-14T14:09:51.594Z,99179.50
2022-09-14T14:12:26.862Z,99184.09
2022-09-14T14:14:58.671Z,99182.69
2022-09-14T14:17:25.684Z,99181.19
2022-09-14T14:19:53.776Z,99178.97
2022-09-14T14:22:24.663Z,99176.16
2022-09-14T14:27:42.124Z,99168.53
2022-09-14T14:30:30.649Z,99163.97
2022-09-14T14:32:58.572Z,99158.53
2022-09-14T14:35:31.115Z,99157.03
2022-09-14T14:37:58.610Z,99162.66
2022-09-14T14:40:27.779Z,99155.94
2022-09-14T14:42:55.450Z,99150.88
2022-09-14T14:45:26.889Z,99161.53
2022-09-14T14:47:54.923Z,99161.72
2022-09-14T14:50:34.401Z,99160.25
2022-09-14T14:53:01.727Z,99150.78
2022-09-14T14:55:31.435Z,99152.75
2022-09-14T14:58:00.886Z,99162.31
2022-09-14T15:00:28.754Z,99159.09
2022-09-14T15:02:55.929Z,99154.88
2022-09-14T15:05:23.031Z,99151.41
2022-09-14T15:07:52.750Z,99147.97
2022-09-14T15:10:20.340Z,99155.72
2022-09-14T15:12:47.345Z,99148.59
2022-09-14T15:15:15.630Z,99146.25
2022-09-14T15:17:42.673Z,99145.63
2022-09-14T15:20:10.103Z,99145.88
2022-09-14T15:22:37.455Z,99148.78
2022-09-14T15:25:05.323Z,99152.34
2022-09-14T15:27:32.420Z,99155.16
2022-09-14T15:29:59.407Z,99141.28
2022-09-14T15:32:26.504Z,99148.38
2022-09-14T15:34:53.833Z,99141.47
2022-09-14T15:37:21.120Z,99147.66
2022-09-14T15:39:50.983Z,99148.75
2022-09-14T15:42:18.472Z,99146.34
2022-09-14T15:44:45.949Z,99139.50
2022-09-14T15:47:14.995Z,99138.84
2022-09-14T15:49:42.670Z,99141.66
2022-09-14T15:52:10.671Z,99132.94
2022-09-14T15:54:38.690Z,99141.09
2022-09-14T15:57:06.585Z,99136.22
2022-09-14T15:59:33.484Z,99134.50
2022-09-14T16:02:00.783Z,99122.44
2022-09-14T16:04:28.099Z,99122.56
2022-09-14T16:06:55.019Z,99128.81
2022-09-14T16:09:22.994Z,99121.03
2022-09-14T16:11:50.488Z,99130.00
2022-09-14T16:14:17.389Z,99137.09
2022-09-14T16:16:44.441Z,99133.72
2022-09-14T16:19:12.869Z,99138.19
2022-09-14T16:21:40.313Z,99130.53
2022-09-14T16:24:13.143Z,99139.31
2022-09-14T16:26:40.394Z,99129.03
2022-09-14T16:29:08.654Z,99140.41
2022-09-14T16:31:36.798Z,99136.13
2022-09-14T16:34:06.448Z,99130.91
2022-09-14T16:36:35.021Z,99125.84
2022-09-14T16:39:03.047Z,99133.09
2022-09-14T16:41:30.311Z,99129.72
2022-09-14T16:43:58.254Z,99129.88
2022-09-14T16:46:26.176Z,99133.63
2022-09-14T16:48:53.590Z,99129.47
2022-09-14T16:51:22.020Z,99128.72
2022-09-14T16:53:49.670Z,99120.13
2022-09-14T16:56:21.977Z,99110.69
2022-09-14T16:58:49.997Z,99116.94
2022-09-14T17:01:28.694Z,99115.41
2022-09-14T17:03:56.855Z,99113.91
2022-09-14T17:06:25.169Z,99122.84
2022-09-14T17:08:56.055Z,99117.03
2022-09-14T17:11:23.385Z,99126.56
2022-09-14T17:13:50.419Z,99119.81
2022-09-14T17:16:19.113Z,99124.44
2022-09-14T17:18:49.044Z,99127.25
2022-09-14T17:21:26.869Z,99134.31
2022-09-14T17:23:54.627Z,99125.88
2022-09-14T17:26:22.424Z,99130.28
2022-09-14T17:28:50.057Z,99133.91
2022-09-14T17:31:18.679Z,99136.59
2022-09-14T17:33:46.272Z,99135.84
2022-09-14T17:36:13.573Z,99142.06
2022-09-14T17:38:41.793Z,99143.00
2022-09-14T17:41:10.019Z,99142.41
2022-09-14T17:43:37.633Z,99149.50
2022-09-14T17:46:05.743Z,99144.25
2022-09-14T17:48:36.595Z,99147.03
2022-09-14T17:51:07.414Z,99149.72
2022-09-14T17:53:41.217Z,99149.81
2022-09-14T17:56:09.169Z,99144.78
2022-09-14T17:58:36.643Z,99137.84
2022-09-14T18:01:06.129Z,99139.72
2022-09-14T18:03:33.283Z,99145.06
2022-09-14T18:06:00.282Z,99139.13
2022-09-14T18:08:27.351Z,99146.84
2022-09-14T18:10:54.282Z,99141.72
2022-09-14T18:13:21.473Z,99146.94
2022-09-14T18:15:48.557Z,99152.34
2022-09-14T18:18:15.759Z,99148.97
2022-09-14T18:20:42.913Z,99145.66
2022-09-14T18:23:10.121Z,99133.63
2022-09-14T18:25:40.199Z,99132.81
2022-09-14T18:28:07.292Z,99132.06
2022-09-14T18:30:35.084Z,99128.66
2022-09-14T18:33:02.104Z,99128.66
2022-09-14T18:35:28.987Z,99132.22
2022-09-14T18:37:56.035Z,99134.06
2022-09-14T18:40:23.031Z,99135.91
2022-09-14T18:42:50.275Z,99122.25
2022-09-14T18:45:17.385Z,99122.41
2022-09-14T18:47:44.677Z,99124.94
2022-09-14T18:50:11.714Z,99112.91
2022-09-14T18:52:38.865Z,99119.19
2022-09-14T18:55:05.964Z,99112.38
2022-09-14T18:57:32.897Z,99110.78
2022-09-14T18:59:59.984Z,99113.53
2022-09-14T19:02:26.925Z,99102.34
2022-09-14T19:04:54.248Z,99097.13
2022-09-14T19:07:21.133Z,99095.41
2022-09-14T19:09:48.069Z,99094.56
2022-09-14T19:12:15.795Z,99100.81
2022-09-14T19:14:42.705Z,99102.63
2022-09-14T19:17:09.629Z,99103.63
2022-09-14T19:19:36.816Z,99101.13
2022-09-14T19:22:03.791Z,99103.75
2022-09-14T19:24:33.397Z,99106.34
2022-09-14T19:27:00.686Z,99107.28
2022-09-14T19:29:28.913Z,99106.50
2022-09-14T19:31:57.004Z,99110.03
2022-09-14T19:34:26.224Z,99103.28
2022-09-14T19:36:54.120Z,99101.63
2022-09-14T19:39:21.490Z,99105.28
2022-09-14T19:41:48.436Z,99105.44
2022-09-14T19:44:15.832Z,99095.16
2022-09-14T19:46:43.238Z,99089.19
2022-09-14T19:49:20.784Z,99084.91
2022-09-14T19:51:48.215Z,99086.72
2022-09-14T19:54:15.434Z,99091.19
2022-09-14T19:56:42.580Z,99088.56
2022-09-14T19:59:09.730Z,99084.34
2022-09-14T20:01:37.769Z,99090.41
2022-09-14T20:04:05.807Z,99088.72
2022-09-14T20:06:38.212Z,99095.78
2022-09-14T20:09:07.634Z,99101.00
2022-09-14T20:11:35.432Z,99101.16
2022-09-14T20:14:04.286Z,99102.84
2022-09-14T20:16:41.688Z,99101.16
2022-09-14T20:19:10.352Z,99094.09
2022-09-14T20:21:37.817Z,99096.78
2022-09-14T20:24:21.768Z,99092.72
2022-09-14T20:26:49.775Z,99098.09
2022-09-14T20:29:17.788Z,99106.00
2022-09-14T20:31:45.178Z,99100.78
2022-09-14T20:34:13.150Z,99101.63
2022-09-14T20:36:40.089Z,99101.78
2022-09-14T20:39:07.003Z,99101.00
2022-09-14T20:41:35.022Z,99093.19
2022-09-14T20:44:02.652Z,99087.97
2022-09-14T20:46:37.545Z,99094.03
2022-09-14T20:49:05.735Z,99087.19
2022-09-14T20:51:32.818Z,99089.81
2022-09-14T20:53:59.943Z,99085.59
2022-09-14T20:56:28.310Z,99082.13
2022-09-14T20:58:59.561Z,99079.53
2022-09-14T21:01:27.938Z,99079.53
2022-09-14T21:03:54.912Z,99088.41
2022-09-14T21:06:22.905Z,99087.56
2022-09-14T21:08:50.189Z,99085.91
2022-09-14T21:11:21.001Z,99077.25
2022-09-14T21:13:48.003Z,99074.47
2022-09-14T21:16:17.286Z,99080.59
2022-09-14T21:18:44.849Z,99074.63
2022-09-14T21:21:13.685Z,99067.72
2022-09-14T21:23:41.125Z,99065.09
2022-09-14T21:26:08.743Z,99064.34
2022-09-14T21:28:36.882Z,99060.16
2022-09-14T21:31:05.131Z,99068.75
2022-09-14T21:33:33.883Z,99057.41
2022-09-14T21:36:08.499Z,99065.31
2022-09-14T21:38:36.129Z,99055.72
2022-09-14T21:41:05.124Z,99060.09
2022-09-14T21:43:32.175Z,99066.22
2022-09-14T21:45:59.481Z,99059.41
2022-09-14T21:48:27.456Z,99064.75
2022-09-14T21:51:09.671Z,99063.16
2022-09-14T21:53:36.790Z,99059.75
2022-09-14T21:56:04.826Z,99050.13
2022-09-14T21:58:32.130Z,99054.34
2022-09-14T22:00:59.883Z,99052.72
2022-09-14T22:03:27.275Z,99052.81
2022-09-14T22:05:58.376Z,99057.25
2022-09-14T22:08:26.123Z,99056.47
2022-09-14T22:10:53.095Z,99063.41
2022-09-14T22:13:20.274Z,99062.53
2022-09-14T22:15:47.244Z,99055.63
2022-09-14T22:18:14.766Z,99052.19
2022-09-14T22:20:41.738Z,99047.88
2022-09-14T22:23:08.766Z,99047.19
2022-09-14T22:25:39.064Z,99039.31
2022-09-14T22:28:05.944Z,99039.31
2022-09-14T22:30:32.863Z,99037.63
2022-09-14T22:32:59.906Z,99044.53
2022-09-14T22:35:26.781Z,99037.63
2022-09-14T22:37:53.708Z,99041.16
2022-09-14T22:40:20.787Z,99036.09
2022-09-14T22:42:47.656Z,99030.03
2022-09-14T22:45:14.766Z,99033.50
2022-09-14T22:47:41.757Z,99030.88
2022-09-14T22:50:08.878Z,99036.25
2022-09-14T22:52:35.729Z,99041.56
2022-09-14T22:55:02.715Z,99038.22
2022-09-14T22:57:29.505Z,99045.28
2022-09-14T22:59:56.626Z,99036.69
2022-09-14T23:02:23.736Z,99036.69
2022-09-14T23:04:51.397Z,99031.63
2022-09-14T23:07:20.344Z,99030.78
2022-09-14T23:09:47.593Z,99031.63
2022-09-14T23:12:14.457Z,99038.66
2022-09-14T23:14:41.338Z,99036.97
2022-09-14T23:17:08.448Z,99031.78
2022-09-14T23:19:35.466Z,99030.09
2022-09-14T23:22:03.385Z,99031.91
2022-09-14T23:24:31.117Z,99027.56
2022-09-14T23:26:57.967Z,99026.88
2022-09-14T23:29:24.898Z,99018.28
2022-09-14T23:31:51.871Z,99014.88
2022-09-14T23:34:18.801Z,99011.38
2022-09-14T23:36:45.741Z,99013.38
2022-09-14T23:39:12.692Z,99010.00
2022-09-14T23:41:41.041Z,99010.00
2022-09-14T23:44:08.845Z,99014.50
2022-09-14T23:46:35.759Z,99011.28
2022-09-14T23:49:02.597Z,99008.72
2022-09-14T23:51:29.716Z,98997.69
2022-09-14T23:53:56.611Z,98991.72
2022-09-14T23:56:23.870Z,98996.94
2022-09-14T23:58:51.142Z,99004.59
